createdAt,value
2022-12-28T00:01:47.018Z,101199.28
2022-12-28T00:04:15.663Z,101199.28
2022-12-28T00:06:42.743Z,101197.78
2022-12-28T00:09:12.260Z,101195.53
2022-12-28T00:11:39.170Z,101191.59
2022-12-28T00:14:06.104Z,101192.69
2022-12-28T00:16:38.482Z,101186.72
2022-12-28T00:19:10.444Z,101186.94
2022-12-28T00:21:37.357Z,101187.53
2022-12-28T00:24:04.630Z,101190.19
2022-12-28T00:26:33.453Z,101182.50
2022-12-28T00:29:04.905Z,101181.59
2022-12-28T00:31:33.659Z,101178.91
2022-12-28T00:34:00.908Z,101177.94
2022-12-28T00:37:08.789Z,101173.63
2022-12-28T00:39:14.871Z,101173.78
2022-12-28T00:41:41.751Z,101179.72
2022-12-28T00:44:08.782Z,101177.28
2022-12-28T00:46:35.709Z,101184.25
2022-12-28T00:49:02.496Z,101187.06
2022-12-28T00:51:29.276Z,101185.41
2022-12-28T00:53:56.040Z,101186.38
2022-12-28T00:56:23.552Z,101185.78
2022-12-28T00:58:55.149Z,101182.63
2022-12-28T01:01:24.060Z,101182.97
2022-12-28T01:03:51.098Z,101184.06
2022-12-28T01:06:20.535Z,101177.50
2022-12-28T01:08:47.559Z,101170.75
2022-12-28T01:11:19.105Z,101180.06
2022-12-28T01:13:46.923Z,101185.22
2022-12-28T01:16:30.677Z,101183.13
2022-12-28T01:19:00.396Z,101183.13
2022-12-28T01:21:30.487Z,101175.88
2022-12-28T01:23:59.759Z,101169.38
2022-12-28T01:26:27.564Z,101172.16
2022-12-28T01:28:56.071Z,101173.06
2022-12-28T01:31:23.226Z,101170.75
2022-12-28T01:33:51.187Z,101175.19
2022-12-28T01:36:19.415Z,101182.25
2022-12-28T01:38:46.948Z,101180.88
2022-12-28T01:41:16.862Z,101179.34
2022-12-28T01:43:52.235Z,101175.41
2022-12-28T01:46:50.154Z,101175.97
2022-12-28T01:49:31.091Z,101175.97
2022-12-28T01:52:23.829Z,101174.31
2022-12-28T01:55:13.778Z,101164.75
2022-12-28T01:58:06.567Z,101164.88
2022-12-28T02:00:34.794Z,101159.03
2022-12-28T02:03:16.320Z,101160.44
2022-12-28T02:05:52.160Z,101145.66
2022-12-28T02:08:22.853Z,101153.69
2022-12-28T02:10:52.251Z,101155.44
2022-12-28T02:13:21.114Z,101149.50
2022-12-28T02:16:10.029Z,101147.00
2022-12-28T02:18:36.988Z,101125.50
2022-12-28T02:21:22.591Z,101139.31
2022-12-28T02:24:10.740Z,101143.19
2022-12-28T02:27:01.829Z,101132.91
2022-12-28T02:29:51.890Z,101130.81
2022-12-28T02:32:24.437Z,101134.13
2022-12-28T02:34:53.994Z,101127.69
2022-12-28T02:37:45.429Z,101123.84
2022-12-28T02:40:35.051Z,101112.97
2022-12-28T02:43:03.416Z,101103.41
2022-12-28T02:45:55.194Z,101101.91
2022-12-28T02:48:41.001Z,101101.34
2022-12-28T02:51:29.492Z,101095.84
2022-12-28T02:54:35.461Z,101085.25
2022-12-28T02:57:18.958Z,101081.13
2022-12-28T03:00:00.769Z,101072.16
2022-12-28T03:02:47.673Z,101074.09
2022-12-28T03:05:44.592Z,101060.50
2022-12-28T03:08:21.870Z,101067.34
2022-12-28T03:11:00.140Z,101056.19
2022-12-28T03:13:45.915Z,101060.75
2022-12-28T03:16:24.647Z,101054.81
2022-12-28T03:19:21.808Z,101058.66
2022-12-28T03:22:11.216Z,101062.69
2022-12-28T03:24:58.491Z,101050.81
2022-12-28T03:27:48.753Z,101049.06
2022-12-28T03:30:40.236Z,101032.97
2022-12-28T03:33:11.967Z,101037.50
2022-12-28T03:36:00.840Z,101037.16
2022-12-28T03:38:53.139Z,101037.22
2022-12-28T03:41:45.264Z,101038.75
2022-12-28T03:44:35.103Z,101035.03
2022-12-28T03:47:12.891Z,101030.84
2022-12-28T03:49:40.872Z,101016.31
2022-12-28T03:52:09.928Z,101027.47
2022-12-28T03:54:36.948Z,101031.91
2022-12-28T03:57:03.850Z,101028.84
2022-12-28T03:59:35.699Z,101027.44
2022-12-28T04:02:02.678Z,101008.00
2022-12-28T04:04:31.615Z,101006.34
2022-12-28T04:06:58.464Z,101001.31
2022-12-28T04:09:25.390Z,101007.16
2022-12-28T04:11:53.339Z,101002.03
2022-12-28T04:14:35.627Z,100992.66
2022-12-28T04:17:02.479Z,100990.16
2022-12-28T04:19:30.574Z,100990.16
2022-12-28T04:21:57.368Z,100991.91
2022-12-28T04:24:24.235Z,100986.09
2022-12-28T04:26:51.305Z,100985.06
2022-12-28T04:29:18.147Z,100974.22
2022-12-28T04:31:49.567Z,100984.69
2022-12-28T04:34:19.399Z,100972.72
2022-12-28T04:37:18.592Z,100978.75
2022-12-28T04:39:55.273Z,100981.19
2022-12-28T04:42:25.382Z,100988.06
2022-12-28T04:44:52.162Z,100979.47
2022-12-28T04:47:18.923Z,100970.16
2022-12-28T04:49:45.994Z,100958.03
2022-12-28T04:52:12.836Z,100971.78
2022-12-28T04:54:39.779Z,100968.53
2022-12-28T04:57:06.998Z,100964.41
2022-12-28T04:59:33.767Z,100961.97
2022-12-28T05:02:00.806Z,100968.97
2022-12-28T05:04:27.775Z,100974.22
2022-12-28T05:06:54.560Z,100969.19
2022-12-28T05:09:21.589Z,100970.25
2022-12-28T05:11:48.401Z,100971.66
2022-12-28T05:14:15.399Z,100953.09
2022-12-28T05:16:42.404Z,100971.88
2022-12-28T05:19:09.402Z,100969.44
2022-12-28T05:21:36.421Z,100960.22
2022-12-28T05:24:03.279Z,100963.28
2022-12-28T05:26:30.410Z,100960.59
2022-12-28T05:28:58.810Z,100949.56
2022-12-28T05:31:26.269Z,100946.19
2022-12-28T05:33:53.885Z,100933.41
2022-12-28T05:36:25.906Z,100933.50
2022-12-28T05:38:53.860Z,100930.13
2022-12-28T05:41:28.572Z,100931.25
2022-12-28T05:43:56.425Z,100943.47
2022-12-28T05:46:25.945Z,100949.38
2022-12-28T05:48:55.144Z,100947.25
2022-12-28T05:51:24.806Z,100955.59
2022-12-28T05:53:51.800Z,100943.34
2022-12-28T05:56:24.198Z,100938.53
2022-12-28T05:59:05.677Z,100946.19
2022-12-28T06:01:35.905Z,100951.13
2022-12-28T06:04:09.150Z,100944.47
2022-12-28T06:06:36.550Z,100947.63
2022-12-28T06:09:03.725Z,100952.03
2022-12-28T06:11:31.163Z,100952.25
2022-12-28T06:13:59.870Z,100954.78
2022-12-28T06:16:29.331Z,100953.25
2022-12-28T06:18:56.903Z,100956.53
2022-12-28T06:21:29.061Z,100964.09
2022-12-28T06:24:00.347Z,100953.06
2022-12-28T06:26:29.020Z,100963.19
2022-12-28T06:28:55.869Z,100962.03
2022-12-28T06:31:25.034Z,100965.34
2022-12-28T06:33:57.270Z,100968.38
2022-12-28T06:36:30.508Z,100964.09
2022-12-28T06:38:59.415Z,100972.47
2022-12-28T06:41:28.939Z,100974.94
2022-12-28T06:43:56.488Z,100967.81
2022-12-28T06:46:26.159Z,100964.72
2022-12-28T06:48:53.180Z,100969.63
2022-12-28T06:51:25.661Z,100967.59
2022-12-28T06:53:53.584Z,100972.25
2022-12-28T06:56:26.027Z,100965.34
2022-12-28T06:59:00.355Z,100966.16
2022-12-28T07:01:33.108Z,100967.69
2022-12-28T07:04:02.136Z,100956.31
2022-12-28T07:06:30.119Z,100945.91
2022-12-28T07:09:01.875Z,100953.63
2022-12-28T07:11:29.223Z,100957.66
2022-12-28T07:13:56.431Z,100952.41
2022-12-28T07:16:24.621Z,100958.75
2022-12-28T07:18:51.575Z,100952.66
2022-12-28T07:21:24.395Z,100942.47
2022-12-28T07:23:53.053Z,100944.88
2022-12-28T07:26:22.631Z,100942.25
2022-12-28T07:28:52.494Z,100944.94
2022-12-28T07:31:22.846Z,100942.81
2022-12-28T07:33:51.156Z,100945.25
2022-12-28T07:36:19.934Z,100945.25
2022-12-28T07:38:47.216Z,100941.84
2022-12-28T07:41:20.047Z,100941.13
2022-12-28T07:43:47.191Z,100937.53
2022-12-28T07:46:19.591Z,100946.63
2022-12-28T07:48:47.185Z,100935.81
2022-12-28T07:51:18.554Z,100940.19
2022-12-28T07:53:47.578Z,100932.72
2022-12-28T07:56:15.242Z,100930.13
2022-12-28T08:01:13.653Z,100925.13
2022-12-28T08:03:42.113Z,100925.72
2022-12-28T08:06:20.585Z,100927.38
2022-12-28T08:08:50.432Z,100919.22
2022-12-28T08:11:23.578Z,100917.34
2022-12-28T08:13:52.536Z,100920.31
2022-12-28T08:16:21.329Z,100930.94
2022-12-28T08:18:49.333Z,100927.00
2022-12-28T08:21:24.564Z,100932.56
2022-12-28T08:23:52.033Z,100943.16
2022-12-28T08:26:23.307Z,100939.53
2022-12-28T08:28:53.116Z,100941.28
2022-12-28T08:31:29.199Z,100954.47
2022-12-28T08:33:57.403Z,100948.75
2022-12-28T08:36:24.912Z,100953.66
2022-12-28T08:38:51.981Z,100948.31
2022-12-28T08:41:25.100Z,100952.75
2022-12-28T08:43:53.960Z,100955.19
2022-12-28T08:46:26.793Z,100948.44
2022-12-28T08:48:55.893Z,100952.28
2022-12-28T08:51:30.553Z,100957.50
2022-12-28T08:53:57.759Z,100971.25
2022-12-28T08:56:30.296Z,100964.50
2022-12-28T08:58:58.167Z,100967.50
2022-12-28T09:01:38.941Z,100947.63
2022-12-28T09:04:15.412Z,100954.72
2022-12-28T09:06:42.395Z,100952.72
2022-12-28T09:09:13.072Z,100941.31
2022-12-28T09:11:41.092Z,100958.19
2022-12-28T09:14:10.300Z,100952.63
2022-12-28T09:16:40.132Z,100962.38
2022-12-28T09:19:09.462Z,100945.28
2022-12-28T09:21:38.493Z,100962.25
2022-12-28T09:24:06.323Z,100960.06
2022-12-28T09:26:36.564Z,100948.72
2022-12-28T09:29:06.348Z,100966.44
2022-12-28T09:31:36.993Z,100957.34
2022-12-28T09:34:34.923Z,100958.88
2022-12-28T09:36:52.753Z,100939.63
2022-12-28T09:39:24.713Z,100934.13
2022-12-28T09:42:03.225Z,100944.38
2022-12-28T09:44:42.861Z,100949.72
2022-12-28T09:47:37.651Z,100950.66
2022-12-28T09:50:30.144Z,100940.31
2022-12-28T09:53:19.923Z,100932.53
2022-12-28T09:56:06.118Z,100929.91
2022-12-28T09:58:36.850Z,100925.59
2022-12-28T10:01:09.443Z,100931.84
2022-12-28T10:03:41.355Z,100925.75
2022-12-28T10:06:25.332Z,100934.03
2022-12-28T10:08:56.256Z,100934.03
2022-12-28T10:11:29.658Z,100932.59
2022-12-28T10:14:01.656Z,100939.59
2022-12-28T10:16:36.684Z,100943.28
2022-12-28T10:19:06.090Z,100935.19
2022-12-28T10:21:34.922Z,100917.69
2022-12-28T10:24:31.006Z,100922.69
2022-12-28T10:26:54.382Z,100917.53
2022-12-28T10:29:23.594Z,100901.78
2022-12-28T10:32:01.116Z,100890.69
2022-12-28T10:34:36.960Z,100897.69
2022-12-28T10:37:18.305Z,100890.66
2022-12-28T10:39:52.758Z,100886.88
2022-12-28T10:42:30.920Z,100885.56
2022-12-28T10:45:07.054Z,100884.03
2022-12-28T10:47:42.226Z,100879.25
2022-12-28T10:50:44.487Z,100878.91
2022-12-28T10:53:20.888Z,100869.25
2022-12-28T10:55:47.860Z,100866.84
2022-12-28T10:58:31.844Z,100867.91
2022-12-28T11:01:06.802Z,100871.13
2022-12-28T11:03:35.858Z,100852.13
2022-12-28T11:06:26.260Z,100860.06
2022-12-28T11:09:29.985Z,100851.66
2022-12-28T11:12:17.890Z,100842.44
2022-12-28T11:14:44.743Z,100837.50
2022-12-28T11:17:25.852Z,100829.78
2022-12-28T11:20:03.457Z,100828.97
2022-12-28T11:22:33.128Z,100821.84
2022-12-28T11:25:01.181Z,100817.78
2022-12-28T11:27:30.124Z,100810.13
2022-12-28T11:29:57.485Z,100805.69
2022-12-28T11:32:31.019Z,100812.50
2022-12-28T11:34:59.162Z,100801.53
2022-12-28T11:37:26.015Z,100807.81
2022-12-28T11:39:53.700Z,100798.13
2022-12-28T11:42:41.221Z,100785.66
2022-12-28T11:45:18.202Z,100780.41
2022-12-28T11:47:45.767Z,100776.75
2022-12-28T11:50:36.670Z,100759.16
2022-12-28T11:53:18.881Z,100753.09
2022-12-28T11:56:02.946Z,100752.34
2022-12-28T11:58:42.280Z,100742.97
2022-12-28T12:01:37.041Z,100747.16
2022-12-28T12:04:10.168Z,100744.59
2022-12-28T12:06:43.330Z,100728.44
2022-12-28T12:09:22.195Z,100727.38
2022-12-28T12:11:58.934Z,100711.16
2022-12-28T12:14:47.811Z,100712.03
2022-12-28T12:17:42.689Z,100717.84
2022-12-28T12:20:19.069Z,100708.88
2022-12-28T12:22:55.347Z,100708.97
2022-12-28T12:25:32.525Z,100708.72
2022-12-28T12:28:06.167Z,100709.88
2022-12-28T12:30:33.364Z,100707.66
2022-12-28T12:33:05.241Z,100701.75
2022-12-28T12:35:42.421Z,100702.47
2022-12-28T12:38:30.359Z,100712.81
2022-12-28T12:41:09.183Z,100699.84
2022-12-28T12:43:47.397Z,100696.47
2022-12-28T12:47:05.458Z,100698.78
2022-12-28T12:49:54.445Z,100698.25
2022-12-28T12:52:42.531Z,100687.97
2022-12-28T12:55:50.637Z,100685.31
2022-12-28T12:58:29.017Z,100679.06
2022-12-28T13:01:09.248Z,100666.06
2022-12-28T13:03:45.554Z,100670.41
2022-12-28T13:06:17.173Z,100664.44
2022-12-28T13:08:52.644Z,100669.31
2022-12-28T13:11:20.934Z,100675.53
2022-12-28T13:13:54.828Z,100668.78
2022-12-28T13:16:27.285Z,100670.00
2022-12-28T13:19:06.584Z,100671.81
2022-12-28T13:21:46.349Z,100662.72
2022-12-28T13:24:27.417Z,100662.19
2022-12-28T13:26:56.318Z,100655.28
2022-12-28T13:29:25.981Z,100664.16
2022-12-28T13:31:53.312Z,100662.47
2022-12-28T13:34:24.102Z,100668.28
2022-12-28T13:37:02.578Z,100667.34
2022-12-28T13:39:36.757Z,100669.91
2022-12-28T13:42:30.437Z,100669.75
2022-12-28T13:45:07.605Z,100662.03
2022-12-28T13:47:39.991Z,100666.91
2022-12-28T13:50:12.502Z,100659.19
2022-12-28T13:52:50.929Z,100666.78
2022-12-28T13:55:24.269Z,100652.31
2022-12-28T13:57:58.893Z,100648.41
2022-12-28T14:00:27.461Z,100655.44
2022-12-28T14:02:57.040Z,100645.56
2022-12-28T14:05:27.360Z,100645.84
2022-12-28T14:07:56.496Z,100646.38
2022-12-28T14:10:24.223Z,100642.03
2022-12-28T14:12:52.734Z,100637.81
2022-12-28T14:15:20.097Z,100629.81
2022-12-28T14:17:49.410Z,100624.66
2022-12-28T14:20:16.589Z,100621.44
2022-12-28T14:22:43.603Z,100620.78
2022-12-28T14:25:17.828Z,100629.13
2022-12-28T14:27:57.265Z,100636.63
2022-12-28T14:30:31.363Z,100637.84
2022-12-28T14:33:19.381Z,100633.38
2022-12-28T14:35:52.998Z,100633.66
2022-12-28T14:38:28.121Z,100628.94
2022-12-28T14:40:57.230Z,100616.50
2022-12-28T14:43:35.747Z,100619.66
2022-12-28T14:46:33.820Z,100609.09
2022-12-28T14:49:21.072Z,100606.13
2022-12-28T14:51:48.168Z,100602.31
2022-12-28T14:54:20.163Z,100612.75
2022-12-28T14:57:13.544Z,100605.31
2022-12-28T14:59:44.431Z,100600.72
2022-12-28T15:02:34.285Z,100600.84
2022-12-28T15:05:02.118Z,100605.72
2022-12-28T15:07:32.207Z,100612.59
2022-12-28T15:10:00.415Z,100608.03
2022-12-28T15:12:27.208Z,100604.75
2022-12-28T15:14:53.934Z,100603.13
2022-12-28T15:17:20.703Z,100603.41
2022-12-28T15:19:48.104Z,100592.75
2022-12-28T15:22:15.709Z,100591.25
2022-12-28T15:24:48.943Z,100596.81
2022-12-28T15:27:15.740Z,100605.84
2022-12-28T15:32:31.206Z,100612.31
2022-12-28T15:34:58.032Z,100613.81
2022-12-28T15:37:24.826Z,100610.69
2022-12-28T15:39:52.598Z,100616.63
2022-12-28T15:42:19.384Z,100610.44
2022-12-28T15:44:48.517Z,100613.94
2022-12-28T15:47:15.413Z,100602.31
2022-12-28T15:49:42.276Z,100598.50
2022-12-28T15:52:09.131Z,100607.06
2022-12-28T15:54:36.477Z,100606.66
2022-12-28T15:57:04.834Z,100603.38
2022-12-28T15:59:31.699Z,100612.00
2022-12-28T16:01:58.768Z,100608.78
2022-12-28T16:04:25.652Z,100609.59
2022-12-28T16:06:52.417Z,100614.72
2022-12-28T16:09:19.185Z,100609.59
2022-12-28T16:11:50.174Z,100595.00
2022-12-28T16:14:20.045Z,100605.53
2022-12-28T16:16:47.097Z,100607.00
2022-12-28T16:19:15.549Z,100605.03
2022-12-28T16:21:44.399Z,100608.00
2022-12-28T16:24:11.807Z,100600.59
2022-12-28T16:26:38.630Z,100599.34
2022-12-28T16:29:05.469Z,100595.69
2022-12-28T16:31:35.323Z,100596.09
2022-12-28T16:34:03.867Z,100604.47
2022-12-28T16:36:31.023Z,100603.03
2022-12-28T16:38:57.986Z,100600.59
2022-12-28T16:41:26.388Z,100601.50
2022-12-28T16:44:02.640Z,100599.88
2022-12-28T16:46:29.604Z,100602.47
2022-12-28T16:48:56.583Z,100596.38
2022-12-28T16:51:24.199Z,100598.28
2022-12-28T16:53:50.972Z,100596.38
2022-12-28T16:56:17.729Z,100592.75
2022-12-28T16:58:48.913Z,100588.94
2022-12-28T17:01:17.620Z,100576.38
2022-12-28T17:03:44.576Z,100591.50
2022-12-28T17:06:11.394Z,100580.97
2022-12-28T17:08:38.194Z,100580.72
2022-12-28T17:11:09.785Z,100591.25
2022-12-28T17:13:37.444Z,100581.94
2022-12-28T17:16:04.651Z,100593.09
2022-12-28T17:18:31.518Z,100591.63
2022-12-28T17:21:04.754Z,100586.63
2022-12-28T17:23:33.749Z,100590.94
2022-12-28T17:26:00.667Z,100596.72
2022-12-28T17:28:27.493Z,100584.59
2022-12-28T17:31:05.129Z,100590.09
2022-12-28T17:33:38.745Z,100587.78
2022-12-28T17:36:06.723Z,100583.06
2022-12-28T17:38:33.634Z,100584.00
2022-12-28T17:41:00.341Z,100585.91
2022-12-28T17:43:27.156Z,100578.59
2022-12-28T17:45:53.993Z,100576.28
2022-12-28T17:48:26.972Z,100569.38
2022-12-28T17:50:53.702Z,100572.34
2022-12-28T17:53:20.443Z,100563.97
2022-12-28T17:55:47.226Z,100566.84
2022-12-28T17:58:14.171Z,100568.56
2022-12-28T18:00:41.014Z,100564.28
2022-12-28T18:03:07.827Z,100562.63
2022-12-28T18:05:34.734Z,100550.88
2022-12-28T18:08:01.484Z,100550.75
2022-12-28T18:10:28.263Z,100540.38
2022-12-28T18:12:55.084Z,100533.50
2022-12-28T18:15:21.848Z,100545.38
2022-12-28T18:17:48.683Z,100553.31
2022-12-28T18:20:16.183Z,100554.94
2022-12-28T18:22:44.151Z,100543.19
2022-12-28T18:25:10.961Z,100542.50
2022-12-28T18:27:37.826Z,100542.78
2022-12-28T18:30:04.973Z,100544.53
2022-12-28T18:32:32.447Z,100541.25
2022-12-28T18:34:59.293Z,100531.28
2022-12-28T18:37:26.478Z,100534.78
2022-12-28T18:39:55.226Z,100533.16
2022-12-28T18:42:22.054Z,100531.28
2022-12-28T18:44:48.900Z,100537.47
2022-12-28T18:47:15.694Z,100523.97
2022-12-28T18:49:46.885Z,100534.88
2022-12-28T18:52:15.770Z,100532.59
2022-12-28T18:54:42.712Z,100534.09
2022-12-28T18:57:10.173Z,100532.00
2022-12-28T18:59:37.115Z,100531.19
2022-12-28T19:02:06.805Z,100527.59
2022-12-28T19:04:34.636Z,100532.13
2022-12-28T19:07:01.469Z,100525.66
2022-12-28T19:09:28.372Z,100526.34
2022-12-28T19:11:55.615Z,100529.72
2022-12-28T19:14:22.450Z,100526.53
2022-12-28T19:16:49.277Z,100528.91
2022-12-28T19:19:17.650Z,100523.59
2022-12-28T19:21:44.895Z,100522.09
2022-12-28T19:24:17.950Z,100522.09
2022-12-28T19:26:45.640Z,100519.97
2022-12-28T19:29:13.756Z,100528.81
2022-12-28T19:31:40.617Z,100530.00
2022-12-28T19:34:07.533Z,100530.28
2022-12-28T19:36:34.390Z,100525.50
2022-12-28T19:39:01.172Z,100513.75
2022-12-28T19:41:28.030Z,100514.97
2022-12-28T19:43:55.048Z,100517.41
2022-12-28T19:46:30.688Z,100515.88
2022-12-28T19:49:02.556Z,100514.13
2022-12-28T19:51:32.177Z,100512.63
2022-12-28T19:54:02.586Z,100518.72
2022-12-28T19:56:29.549Z,100518.28
2022-12-28T19:59:04.937Z,100513.84
2022-12-28T20:01:33.281Z,100506.91
2022-12-28T20:04:00.336Z,100502.75
2022-12-28T20:06:29.460Z,100502.22
2022-12-28T20:08:58.979Z,100493.56
2022-12-28T20:11:26.542Z,100489.38
2022-12-28T20:13:58.621Z,100492.28
2022-12-28T20:16:27.496Z,100494.84
2022-12-28T20:18:55.556Z,100495.09
2022-12-28T20:21:24.576Z,100487.69
2022-12-28T20:23:52.955Z,100489.44
2022-12-28T20:26:21.378Z,100493.06
2022-12-28T20:28:50.742Z,100482.13
2022-12-28T20:31:17.978Z,100474.03
2022-12-28T20:33:45.536Z,100472.84
2022-12-28T20:36:18.426Z,100472.16
2022-12-28T20:38:45.799Z,100468.66
2022-12-28T20:41:37.023Z,100475.88
2022-12-28T20:44:09.186Z,100475.56
2022-12-28T20:46:36.445Z,100471.81
2022-12-28T20:49:03.808Z,100464.84
2022-12-28T20:51:30.777Z,100467.78
2022-12-28T20:53:57.523Z,100469.88
2022-12-28T20:56:24.460Z,100467.56
2022-12-28T20:58:51.322Z,100462.44
2022-12-28T21:01:19.064Z,100462.94
2022-12-28T21:03:46.868Z,100463.63
2022-12-28T21:06:14.296Z,100464.19
2022-12-28T21:08:41.386Z,100456.28
2022-12-28T21:11:08.184Z,100464.19
2022-12-28T21:13:38.109Z,100461.34
2022-12-28T21:16:09.856Z,100458.78
2022-12-28T21:18:36.746Z,100457.41
2022-12-28T21:21:03.690Z,100459.00
2022-12-28T21:23:31.939Z,100458.59
2022-12-28T21:26:03.498Z,100453.00
2022-12-28T21:28:31.599Z,100447.78
2022-12-28T21:31:00.046Z,100442.78
2022-12-28T21:33:26.883Z,100445.34
2022-12-28T21:36:01.703Z,100445.59
2022-12-28T21:38:29.265Z,100441.16
2022-12-28T21:41:04.194Z,100437.91
2022-12-28T21:43:32.097Z,100420.84
2022-12-28T21:46:11.272Z,100414.91
2022-12-28T21:48:38.579Z,100426.31
2022-12-28T21:51:31.200Z,100418.19
2022-12-28T21:54:04.318Z,100423.81
2022-12-28T21:56:32.058Z,100428.91
2022-12-28T21:58:59.667Z,100427.47
2022-12-28T22:01:46.740Z,100430.72
2022-12-28T22:04:35.448Z,100424.69
2022-12-28T22:07:03.229Z,100421.00
2022-12-28T22:09:48.488Z,100419.13
2022-12-28T22:12:34.106Z,100409.84
2022-12-28T22:15:26.312Z,100407.41
2022-12-28T22:17:59.092Z,100407.50
2022-12-28T22:20:28.069Z,100400.75
2022-12-28T22:22:59.288Z,100392.97
2022-12-28T22:25:26.745Z,100397.72
2022-12-28T22:27:53.544Z,100384.53
2022-12-28T22:30:20.405Z,100380.22
2022-12-28T22:32:47.776Z,100385.31
2022-12-28T22:35:14.846Z,100382.66
2022-12-28T22:37:42.820Z,100385.06
2022-12-28T22:40:10.787Z,100385.31
2022-12-28T22:42:45.128Z,100376.72
2022-12-28T22:45:15.007Z,100383.72
2022-12-28T22:47:42.657Z,100385.63
2022-12-28T22:50:12.571Z,100377.53
2022-12-28T22:52:39.614Z,100374.28
2022-12-28T22:55:07.347Z,100376.09
2022-12-28T22:57:34.194Z,100371.97
2022-12-28T23:00:01.018Z,100374.09
2022-12-28T23:02:30.504Z,100366.41
2022-12-28T23:04:57.384Z,100368.84
2022-12-28T23:07:24.124Z,100366.38
2022-12-28T23:09:51.104Z,100367.06
2022-12-28T23:12:17.888Z,100360.56
2022-12-28T23:15:03.342Z,100371.34
2022-12-28T23:17:31.507Z,100369.25
2022-12-28T23:20:17.061Z,100372.69
2022-12-28T23:23:02.325Z,100362.91
2022-12-28T23:25:47.886Z,100357.81
2022-12-28T23:28:16.287Z,100359.50
2022-12-28T23:30:46.541Z,100353.41
2022-12-28T23:33:13.694Z,100365.84
2022-12-28T23:35:40.451Z,100355.94
2022-12-28T23:38:07.210Z,100353.41
2022-12-28T23:40:34.064Z,100357.25
2022-12-28T23:43:00.901Z,100344.56
2022-12-28T23:45:27.709Z,100349.69
2022-12-28T23:47:54.867Z,100342.72
2022-12-28T23:50:21.743Z,100347.59
2022-12-28T23:52:48.605Z,100345.03
2022-12-28T23:55:15.647Z,100351.06
2022-12-28T23:57:42.540Z,100342.47
